Terminal Aerodrome Forecast
Issued by NWS Duluth, MN

Home | Current Version | Previous Version | Text Only | Print | Product List | Glossary On
Versions: 1 2 3 4 5 6 7 8 9 10 11 12 13 14 15 16 17 18 19 20 21 22 23 24
000
FTUS43 KDLH 200400 AAA
TAFDLH
TAF AMD
KDLH 200413Z 2004/2024 14006KT 4SM -FZDZSN BR OVC006
      TEMPO 2006/2009 1 1/2SM -SN BR OVC004
     FM200900 14007KT 2SM -FZDZSN BR SCT004 BKN009
      TEMPO 2010/2014 3/4SM -FZDZSN BR OVC004
     FM201600 16008KT 2SM -FZDZSN BR OVC007
     FM202100 17007KT 6SM -FZDZSN BR SCT009 OVC012=

USA.gov is the U.S. government's official web portal to all federal, state and local government web resources and services.